Hauptseite
METAR-TAF:

METAR-TAF

Flughäfen :

Flughafen Augsburg

Augsburg, Deutschland

Breite: 48-26N, Länge: 010-56E, Höhe: 461 m

Beobachtung

Neuester Wetterbericht von vor 48 Minuten, um 04:50 UTC
Wind 3 kt aus Ost/Nordost, variierte zwischen Nord/Nordost und Ost
Temperatur 17°C
Luftfeuchtigkeit 88%
Luftdruck 1019 hPa
Sichtweite 10 km oder mehr
keine Wolken unter 1500 m und keine Kumulonimbus oder Gewitterwolken

METAR: EDMA 240450Z 06003KT 030V100 CAVOK 17/15 Q1019

Zeit: 07:38 (05:38 UTC)

Prognose

Neuester Wetterbericht von vor 12 Stunden und 38 Minuten, um 17:00 UTC
Gültige Prognose vom 23 um 18 UTC bis 23 um 24 UTC
Wind 4 kt aus Nord/Nordost
Sichtweite 10 km oder mehr
Leicht bewölkt in der Höhe von 4500 ft

TAF: EDMA 231700Z 2318/2324 03004KT 9999 FEW045

Wetterbeobachtungen und Prognosen von mehr als 4000 Flughäfen (METAR und TAF Bericht).

Die verfügbaren Stationen werden durch gelbe und rote Markierungen auf der Karte dargestellt.

Führen Sie die Maus auf sie, um den Namen der Station zu sehen.

Darauf klicken, um die Beobachtung von Wetterbeobachtungen und Prognosen zu sehen.

Um die Karte zu ändern : klicken Sie auf den grünen Tasten mit einem schwarzen Kreuz Zum Vergrößern, auf den grünen Button mit einem Gedankenstrich zu verkleinern, oder auf die grünen Pfeile für benachbarte Karten.


METAR-TAF: